Lund, Nevada
Current Conditions -  °F | °C
As of 12:53 PM on Thursday 18 Dec 2014 (Local Time) from KELY Reporting Station
Few Clouds Few Clouds  
Wind Chill: 33°   Ceiling: Unl
Heat Index: 37°   Visibility: 10mi
Dew Point: 24°   Wind: 5mph
Humidity: 59%   Direction: 300°WNW
Pressure: 30.11"   Gusts: NA
Location:  38.86°N, 115.01°W
Report Text: KELY 182053Z AUTO 30004KT 10SM FEW055 03/M04 A3011 RMK AO2 SLP197 T00281044 56015
Loading
Personal Weather Stations






























Interactive Weather Map New forecast layout! Learn more

10-Day Weather Forecast

Advertisements
Track Severe Weather on mobile